sensor_id;sensor_type;location;lat;lon;timestamp;temperature;humidity
17994;DHT22;9122;48.406;9.984;2023-04-04T00:02:14;3.10;74.10
17994;DHT22;9122;48.406;9.984;2023-04-04T00:04:58;3.00;74.40
17994;DHT22;9122;48.406;9.984;2023-04-04T00:07:46;2.90;74.50
17994;DHT22;9122;48.406;9.984;2023-04-04T00:10:31;2.90;74.80
17994;DHT22;9122;48.406;9.984;2023-04-04T00:13:15;2.90;75.20
17994;DHT22;9122;48.406;9.984;2023-04-04T00:16:00;2.90;75.50
17994;DHT22;9122;48.406;9.984;2023-04-04T00:18:45;2.80;75.70
17994;DHT22;9122;48.406;9.984;2023-04-04T00:21:29;2.80;76.10
17994;DHT22;9122;48.406;9.984;2023-04-04T00:24:14;2.80;76.40
17994;DHT22;9122;48.406;9.984;2023-04-04T00:26:58;2.80;76.70
17994;DHT22;9122;48.406;9.984;2023-04-04T00:29:43;2.70;76.90
17994;DHT22;9122;48.406;9.984;2023-04-04T00:32:27;2.70;78.00
17994;DHT22;9122;48.406;9.984;2023-04-04T00:35:12;3.20;77.90
17994;DHT22;9122;48.406;9.984;2023-04-04T00:37:56;2.60;77.60
17994;DHT22;9122;48.406;9.984;2023-04-04T00:40:46;2.60;77.90
17994;DHT22;9122;48.406;9.984;2023-04-04T00:43:33;2.60;78.10
17994;DHT22;9122;48.406;9.984;2023-04-04T00:46:18;2.90;78.60
17994;DHT22;9122;48.406;9.984;2023-04-04T00:49:02;2.50;78.60
17994;DHT22;9122;48.406;9.984;2023-04-04T00:51:50;2.50;79.00
17994;DHT22;9122;48.406;9.984;2023-04-04T00:54:34;2.50;79.30
17994;DHT22;9122;48.406;9.984;2023-04-04T00:57:19;2.70;79.50
17994;DHT22;9122;48.406;9.984;2023-04-04T01:00:04;2.40;79.40
17994;DHT22;9122;48.406;9.984;2023-04-04T01:02:49;2.40;79.60
17994;DHT22;9122;48.406;9.984;2023-04-04T01:05:34;2.40;80.00
17994;DHT22;9122;48.406;9.984;2023-04-04T01:08:22;2.40;80.00
17994;DHT22;9122;48.406;9.984;2023-04-04T01:11:07;2.30;80.20
17994;DHT22;9122;48.406;9.984;2023-04-04T01:13:52;2.30;80.40
17994;DHT22;9122;48.406;9.984;2023-04-04T01:16:37;2.30;80.50
17994;DHT22;9122;48.406;9.984;2023-04-04T01:19:31;2.30;80.70
17994;DHT22;9122;48.406;9.984;2023-04-04T01:22:17;2.40;80.80
17994;DHT22;9122;48.406;9.984;2023-04-04T01:25:04;2.30;81.00
17994;DHT22;9122;48.406;9.984;2023-04-04T01:27:48;2.20;81.10
17994;DHT22;9122;48.406;9.984;2023-04-04T01:30:35;2.20;81.30
17994;DHT22;9122;48.406;9.984;2023-04-04T01:33:28;2.20;81.30
17994;DHT22;9122;48.406;9.984;2023-04-04T01:39:13;2.10;81.50
17994;DHT22;9122;48.406;9.984;2023-04-04T01:42:00;2.10;81.60
17994;DHT22;9122;48.406;9.984;2023-04-04T01:44:46;2.10;81.60
17994;DHT22;9122;48.406;9.984;2023-04-04T01:47:37;2.10;81.80
17994;DHT22;9122;48.406;9.984;2023-04-04T01:50:22;2.00;81.90
17994;DHT22;9122;48.406;9.984;2023-04-04T01:53:07;2.00;82.00
17994;DHT22;9122;48.406;9.984;2023-04-04T01:55:51;2.00;81.80
17994;DHT22;9122;48.406;9.984;2023-04-04T01:58:35;2.00;81.90
17994;DHT22;9122;48.406;9.984;2023-04-04T02:01:20;2.00;82.00
17994;DHT22;9122;48.406;9.984;2023-04-04T02:04:04;1.90;82.10
17994;DHT22;9122;48.406;9.984;2023-04-04T02:06:50;1.90;82.20
17994;DHT22;9122;48.406;9.984;2023-04-04T02:09:35;2.40;83.40
17994;DHT22;9122;48.406;9.984;2023-04-04T02:12:20;1.90;82.50
17994;DHT22;9122;48.406;9.984;2023-04-04T02:15:05;1.90;82.70
17994;DHT22;9122;48.406;9.984;2023-04-04T02:17:50;1.80;82.90
17994;DHT22;9122;48.406;9.984;2023-04-04T02:20:34;1.80;83.00
17994;DHT22;9122;48.406;9.984;2023-04-04T02:23:18;1.80;83.20
17994;DHT22;9122;48.406;9.984;2023-04-04T02:26:02;1.80;83.40
17994;DHT22;9122;48.406;9.984;2023-04-04T02:28:47;1.80;83.60
17994;DHT22;9122;48.406;9.984;2023-04-04T02:31:31;1.80;83.70
17994;DHT22;9122;48.406;9.984;2023-04-04T02:34:16;1.80;83.90
17994;DHT22;9122;48.406;9.984;2023-04-04T02:37:00;1.70;83.90
17994;DHT22;9122;48.406;9.984;2023-04-04T02:39:45;1.70;84.00
17994;DHT22;9122;48.406;9.984;2023-04-04T02:42:30;1.70;84.10
17994;DHT22;9122;48.406;9.984;2023-04-04T02:45:14;1.70;84.20
17994;DHT22;9122;48.406;9.984;2023-04-04T02:47:58;1.70;84.10
17994;DHT22;9122;48.406;9.984;2023-04-04T02:50:42;1.70;84.30
17994;DHT22;9122;48.406;9.984;2023-04-04T02:53:27;1.60;84.10
17994;DHT22;9122;48.406;9.984;2023-04-04T02:56:12;1.60;84.20
17994;DHT22;9122;48.406;9.984;2023-04-04T02:58:56;1.60;84.20
17994;DHT22;9122;48.406;9.984;2023-04-04T03:01:41;1.60;84.30
17994;DHT22;9122;48.406;9.984;2023-04-04T03:04:25;1.50;85.00
17994;DHT22;9122;48.406;9.984;2023-04-04T03:07:10;1.70;84.50
17994;DHT22;9122;48.406;9.984;2023-04-04T03:09:55;1.50;84.40
17994;DHT22;9122;48.406;9.984;2023-04-04T03:12:40;1.50;84.40
17994;DHT22;9122;48.406;9.984;2023-04-04T03:15:24;1.50;84.40
17994;DHT22;9122;48.406;9.984;2023-04-04T03:18:12;1.50;84.40
17994;DHT22;9122;48.406;9.984;2023-04-04T03:20:56;1.40;84.40
17994;DHT22;9122;48.406;9.984;2023-04-04T03:23:41;1.40;84.40
17994;DHT22;9122;48.406;9.984;2023-04-04T03:26:26;1.40;84.30
17994;DHT22;9122;48.406;9.984;2023-04-04T03:29:12;1.40;84.40
17994;DHT22;9122;48.406;9.984;2023-04-04T03:31:56;1.40;84.40
17994;DHT22;9122;48.406;9.984;2023-04-04T03:34:40;1.90;84.80
17994;DHT22;9122;48.406;9.984;2023-04-04T03:37:26;1.30;84.60
17994;DHT22;9122;48.406;9.984;2023-04-04T03:40:12;1.30;84.60
17994;DHT22;9122;48.406;9.984;2023-04-04T03:42:57;1.30;84.90
17994;DHT22;9122;48.406;9.984;2023-04-04T03:45:41;1.30;84.60
17994;DHT22;9122;48.406;9.984;2023-04-04T03:48:26;1.30;84.80
17994;DHT22;9122;48.406;9.984;2023-04-04T03:51:11;1.30;84.70
17994;DHT22;9122;48.406;9.984;2023-04-04T03:53:55;1.20;84.70
17994;DHT22;9122;48.406;9.984;2023-04-04T03:56:40;1.20;84.80
17994;DHT22;9122;48.406;9.984;2023-04-04T03:59:24;1.20;84.80
17994;DHT22;9122;48.406;9.984;2023-04-04T04:02:09;1.10;84.70
17994;DHT22;9122;48.406;9.984;2023-04-04T04:04:54;1.20;84.80
17994;DHT22;9122;48.406;9.984;2023-04-04T04:07:42;1.20;84.70
17994;DHT22;9122;48.406;9.984;2023-04-04T04:10:26;1.10;84.80
17994;DHT22;9122;48.406;9.984;2023-04-04T04:13:11;1.10;84.80
17994;DHT22;9122;48.406;9.984;2023-04-04T04:15:56;1.10;84.80
17994;DHT22;9122;48.406;9.984;2023-04-04T04:18:40;1.10;84.80
17994;DHT22;9122;48.406;9.984;2023-04-04T04:21:24;1.10;84.80
17994;DHT22;9122;48.406;9.984;2023-04-04T04:24:11;1.00;84.70
17994;DHT22;9122;48.406;9.984;2023-04-04T04:26:55;1.00;84.60
17994;DHT22;9122;48.406;9.984;2023-04-04T04:29:40;1.10;84.70
17994;DHT22;9122;48.406;9.984;2023-04-04T04:32:24;1.00;84.70
17994;DHT22;9122;48.406;9.984;2023-04-04T04:35:09;1.00;84.70
17994;DHT22;9122;48.406;9.984;2023-04-04T04:37:54;1.00;84.60
17994;DHT22;9122;48.406;9.984;2023-04-04T04:40:38;1.10;84.70
17994;DHT22;9122;48.406;9.984;2023-04-04T04:43:23;1.00;84.70
17994;DHT22;9122;48.406;9.984;2023-04-04T04:46:08;1.00;84.70
17994;DHT22;9122;48.406;9.984;2023-04-04T04:48:52;1.00;84.70
17994;DHT22;9122;48.406;9.984;2023-04-04T04:51:36;1.00;84.80
17994;DHT22;9122;48.406;9.984;2023-04-04T04:54:22;1.00;84.70
17994;DHT22;9122;48.406;9.984;2023-04-04T04:57:06;0.90;84.80
17994;DHT22;9122;48.406;9.984;2023-04-04T04:59:51;0.90;84.80
17994;DHT22;9122;48.406;9.984;2023-04-04T05:02:35;0.90;84.80
17994;DHT22;9122;48.406;9.984;2023-04-04T05:05:26;0.80;84.70
17994;DHT22;9122;48.406;9.984;2023-04-04T05:08:10;0.90;84.70
17994;DHT22;9122;48.406;9.984;2023-04-04T05:10:55;0.80;84.50
17994;DHT22;9122;48.406;9.984;2023-04-04T05:13:39;0.80;84.40
17994;DHT22;9122;48.406;9.984;2023-04-04T05:16:24;0.80;84.40
17994;DHT22;9122;48.406;9.984;2023-04-04T05:19:09;0.80;84.40
17994;DHT22;9122;48.406;9.984;2023-04-04T05:21:54;0.90;85.00
17994;DHT22;9122;48.406;9.984;2023-04-04T05:24:38;0.80;84.30
17994;DHT22;9122;48.406;9.984;2023-04-04T05:27:23;0.80;84.40
17994;DHT22;9122;48.406;9.984;2023-04-04T05:30:07;0.80;84.30
17994;DHT22;9122;48.406;9.984;2023-04-04T05:32:52;0.90;84.20
17994;DHT22;9122;48.406;9.984;2023-04-04T05:35:37;0.80;83.90
17994;DHT22;9122;48.406;9.984;2023-04-04T05:38:21;0.90;83.80
17994;DHT22;9122;48.406;9.984;2023-04-04T05:41:07;0.90;83.80
17994;DHT22;9122;48.406;9.984;2023-04-04T05:43:51;0.90;83.40
17994;DHT22;9122;48.406;9.984;2023-04-04T05:46:36;1.00;83.40
17994;DHT22;9122;48.406;9.984;2023-04-04T05:49:20;1.00;83.50
17994;DHT22;9122;48.406;9.984;2023-04-04T05:52:05;1.10;83.50
17994;DHT22;9122;48.406;9.984;2023-04-04T05:54:50;1.10;83.60
17994;DHT22;9122;48.406;9.984;2023-04-04T05:57:35;1.20;83.50
17994;DHT22;9122;48.406;9.984;2023-04-04T06:00:19;1.40;83.40
17994;DHT22;9122;48.406;9.984;2023-04-04T06:03:04;1.60;83.40
17994;DHT22;9122;48.406;9.984;2023-04-04T06:05:51;1.30;83.10
17994;DHT22;9122;48.406;9.984;2023-04-04T06:08:36;1.30;83.10
17994;DHT22;9122;48.406;9.984;2023-04-04T06:11:20;1.60;82.80
17994;DHT22;9122;48.406;9.984;2023-04-04T06:14:06;1.40;82.50
17994;DHT22;9122;48.406;9.984;2023-04-04T06:16:51;1.40;82.30
17994;DHT22;9122;48.406;9.984;2023-04-04T06:19:36;1.70;82.10
17994;DHT22;9122;48.406;9.984;2023-04-04T06:22:20;1.50;81.70
17994;DHT22;9122;48.406;9.984;2023-04-04T06:25:06;1.60;81.60
17994;DHT22;9122;48.406;9.984;2023-04-04T06:27:53;1.70;81.20
17994;DHT22;9122;48.406;9.984;2023-04-04T06:30:38;1.80;80.80
17994;DHT22;9122;48.406;9.984;2023-04-04T06:33:23;2.00;80.50
17994;DHT22;9122;48.406;9.984;2023-04-04T06:36:07;2.10;79.90
17994;DHT22;9122;48.406;9.984;2023-04-04T06:38:52;2.20;79.80
17994;DHT22;9122;48.406;9.984;2023-04-04T06:41:36;2.40;79.50
17994;DHT22;9122;48.406;9.984;2023-04-04T06:44:21;2.50;79.30
17994;DHT22;9122;48.406;9.984;2023-04-04T06:47:05;2.60;78.50
17994;DHT22;9122;48.406;9.984;2023-04-04T06:49:49;2.70;78.40
17994;DHT22;9122;48.406;9.984;2023-04-04T06:52:34;2.80;78.40
17994;DHT22;9122;48.406;9.984;2023-04-04T06:55:19;2.90;78.30
17994;DHT22;9122;48.406;9.984;2023-04-04T06:58:03;2.90;78.10
17994;DHT22;9122;48.406;9.984;2023-04-04T07:00:48;2.90;78.10
17994;DHT22;9122;48.406;9.984;2023-04-04T07:06:17;3.00;77.10
17994;DHT22;9122;48.406;9.984;2023-04-04T07:09:02;3.10;77.70
17994;DHT22;9122;48.406;9.984;2023-04-04T07:11:47;3.30;77.20
17994;DHT22;9122;48.406;9.984;2023-04-04T07:14:31;3.90;76.20
17994;DHT22;9122;48.406;9.984;2023-04-04T07:17:16;4.00;75.10
17994;DHT22;9122;48.406;9.984;2023-04-04T07:20:01;4.20;73.90
17994;DHT22;9122;48.406;9.984;2023-04-04T07:22:45;4.50;73.20
17994;DHT22;9122;48.406;9.984;2023-04-04T07:25:31;5.00;72.40
17994;DHT22;9122;48.406;9.984;2023-04-04T07:28:15;5.20;71.60
17994;DHT22;9122;48.406;9.984;2023-04-04T07:31:00;5.50;70.40
17994;DHT22;9122;48.406;9.984;2023-04-04T07:33:45;5.80;69.10
17994;DHT22;9122;48.406;9.984;2023-04-04T07:36:29;6.00;67.40
17994;DHT22;9122;48.406;9.984;2023-04-04T07:39:14;6.80;66.70
17994;DHT22;9122;48.406;9.984;2023-04-04T07:41:58;6.40;66.00
17994;DHT22;9122;48.406;9.984;2023-04-04T07:44:43;6.50;64.50
17994;DHT22;9122;48.406;9.984;2023-04-04T07:47:27;6.70;63.90
17994;DHT22;9122;48.406;9.984;2023-04-04T07:50:13;6.70;63.50
17994;DHT22;9122;48.406;9.984;2023-04-04T07:52:57;6.70;63.50
17994;DHT22;9122;48.406;9.984;2023-04-04T07:55:42;6.80;63.10
17994;DHT22;9122;48.406;9.984;2023-04-04T07:58:27;6.60;63.20
17994;DHT22;9122;48.406;9.984;2023-04-04T08:01:11;7.00;63.60
17994;DHT22;9122;48.406;9.984;2023-04-04T08:03:56;7.10;62.50
17994;DHT22;9122;48.406;9.984;2023-04-04T08:06:40;7.30;61.60
17994;DHT22;9122;48.406;9.984;2023-04-04T08:09:25;7.60;60.80
17994;DHT22;9122;48.406;9.984;2023-04-04T08:12:11;8.00;60.10
17994;DHT22;9122;48.406;9.984;2023-04-04T08:14:56;8.20;58.80
17994;DHT22;9122;48.406;9.984;2023-04-04T08:17:41;8.40;57.50
17994;DHT22;9122;48.406;9.984;2023-04-04T08:20:26;9.00;57.30
17994;DHT22;9122;48.406;9.984;2023-04-04T08:23:11;8.70;57.00
17994;DHT22;9122;48.406;9.984;2023-04-04T08:25:57;8.70;56.80
17994;DHT22;9122;48.406;9.984;2023-04-04T08:28:42;8.70;56.10
17994;DHT22;9122;48.406;9.984;2023-04-04T08:31:28;8.40;56.00
17994;DHT22;9122;48.406;9.984;2023-04-04T08:34:13;8.30;56.40
17994;DHT22;9122;48.406;9.984;2023-04-04T08:36:58;8.00;56.60
17994;DHT22;9122;48.406;9.984;2023-04-04T08:39:43;7.70;57.10
17994;DHT22;9122;48.406;9.984;2023-04-04T08:42:27;7.50;57.60
17994;DHT22;9122;48.406;9.984;2023-04-04T08:45:16;7.30;57.80
17994;DHT22;9122;48.406;9.984;2023-04-04T08:48:03;7.90;57.80
17994;DHT22;9122;48.406;9.984;2023-04-04T08:50:48;7.10;56.90
17994;DHT22;9122;48.406;9.984;2023-04-04T08:53:33;7.00;57.40
17994;DHT22;9122;48.406;9.984;2023-04-04T08:56:20;7.00;57.50
17994;DHT22;9122;48.406;9.984;2023-04-04T08:59:05;6.90;57.50
17994;DHT22;9122;48.406;9.984;2023-04-04T09:02:13;6.80;58.10
17994;DHT22;9122;48.406;9.984;2023-04-04T09:04:59;6.70;58.20
17994;DHT22;9122;48.406;9.984;2023-04-04T09:07:46;6.80;57.60
17994;DHT22;9122;48.406;9.984;2023-04-04T09:13:36;6.80;57.00
17994;DHT22;9122;48.406;9.984;2023-04-04T09:16:24;6.80;57.20
17994;DHT22;9122;48.406;9.984;2023-04-04T09:19:09;6.80;57.00
17994;DHT22;9122;48.406;9.984;2023-04-04T09:21:53;6.90;57.10
17994;DHT22;9122;48.406;9.984;2023-04-04T09:24:39;6.90;56.30
17994;DHT22;9122;48.406;9.984;2023-04-04T09:27:24;6.90;55.30
17994;DHT22;9122;48.406;9.984;2023-04-04T09:30:08;6.90;55.60
17994;DHT22;9122;48.406;9.984;2023-04-04T09:32:53;6.90;55.40
17994;DHT22;9122;48.406;9.984;2023-04-04T09:35:39;6.80;55.60
17994;DHT22;9122;48.406;9.984;2023-04-04T09:38:28;6.80;55.90
17994;DHT22;9122;48.406;9.984;2023-04-04T09:41:15;6.90;56.40
17994;DHT22;9122;48.406;9.984;2023-04-04T09:44:02;6.80;56.30
17994;DHT22;9122;48.406;9.984;2023-04-04T09:46:47;6.70;55.70
17994;DHT22;9122;48.406;9.984;2023-04-04T09:49:34;6.60;56.50
17994;DHT22;9122;48.406;9.984;2023-04-04T09:52:19;6.60;56.90
17994;DHT22;9122;48.406;9.984;2023-04-04T09:55:04;6.50;57.10
17994;DHT22;9122;48.406;9.984;2023-04-04T09:57:49;6.50;57.30
17994;DHT22;9122;48.406;9.984;2023-04-04T10:00:39;6.40;56.80
17994;DHT22;9122;48.406;9.984;2023-04-04T10:03:26;6.20;56.70
17994;DHT22;9122;48.406;9.984;2023-04-04T10:06:11;6.30;56.80
17994;DHT22;9122;48.406;9.984;2023-04-04T10:08:56;6.30;56.60
17994;DHT22;9122;48.406;9.984;2023-04-04T10:11:41;6.20;57.00
17994;DHT22;9122;48.406;9.984;2023-04-04T10:14:33;6.20;57.20
17994;DHT22;9122;48.406;9.984;2023-04-04T10:17:18;6.30;56.90
17994;DHT22;9122;48.406;9.984;2023-04-04T10:20:04;6.30;57.00
17994;DHT22;9122;48.406;9.984;2023-04-04T10:22:49;6.30;57.00
17994;DHT22;9122;48.406;9.984;2023-04-04T10:25:34;6.30;56.60
17994;DHT22;9122;48.406;9.984;2023-04-04T10:28:20;6.30;57.20
17994;DHT22;9122;48.406;9.984;2023-04-04T10:31:22;6.30;56.40
17994;DHT22;9122;48.406;9.984;2023-04-04T10:34:21;6.30;56.30
17994;DHT22;9122;48.406;9.984;2023-04-04T10:37:12;6.40;56.10
17994;DHT22;9122;48.406;9.984;2023-04-04T10:42:45;6.40;56.40
17994;DHT22;9122;48.406;9.984;2023-04-04T10:45:30;6.40;56.40
17994;DHT22;9122;48.406;9.984;2023-04-04T10:48:17;6.40;56.40
17994;DHT22;9122;48.406;9.984;2023-04-04T10:51:03;6.40;56.40
17994;DHT22;9122;48.406;9.984;2023-04-04T10:53:48;6.30;56.10
17994;DHT22;9122;48.406;9.984;2023-04-04T10:56:34;6.40;56.10
17994;DHT22;9122;48.406;9.984;2023-04-04T10:59:19;6.30;56.10
17994;DHT22;9122;48.406;9.984;2023-04-04T11:02:11;6.40;56.60
17994;DHT22;9122;48.406;9.984;2023-04-04T11:05:14;6.40;56.40
17994;DHT22;9122;48.406;9.984;2023-04-04T11:08:03;6.40;56.00
17994;DHT22;9122;48.406;9.984;2023-04-04T11:10:52;6.40;56.00
17994;DHT22;9122;48.406;9.984;2023-04-04T11:13:37;6.40;56.20
17994;DHT22;9122;48.406;9.984;2023-04-04T11:16:23;6.40;56.20
17994;DHT22;9122;48.406;9.984;2023-04-04T11:19:08;6.40;56.20
17994;DHT22;9122;48.406;9.984;2023-04-04T11:21:56;6.50;56.00
17994;DHT22;9122;48.406;9.984;2023-04-04T11:24:44;6.50;56.30
17994;DHT22;9122;48.406;9.984;2023-04-04T11:27:29;6.60;56.50
17994;DHT22;9122;48.406;9.984;2023-04-04T11:30:14;6.60;55.90
17994;DHT22;9122;48.406;9.984;2023-04-04T11:32:58;6.60;56.00
17994;DHT22;9122;48.406;9.984;2023-04-04T11:35:49;6.70;55.80
17994;DHT22;9122;48.406;9.984;2023-04-04T11:38:34;6.70;55.80
17994;DHT22;9122;48.406;9.984;2023-04-04T11:41:18;6.70;55.50
17994;DHT22;9122;48.406;9.984;2023-04-04T11:44:10;6.80;55.90
17994;DHT22;9122;48.406;9.984;2023-04-04T11:47:18;6.80;56.00
17994;DHT22;9122;48.406;9.984;2023-04-04T11:50:07;6.90;55.40
17994;DHT22;9122;48.406;9.984;2023-04-04T11:52:52;7.00;55.70
17994;DHT22;9122;48.406;9.984;2023-04-04T11:55:40;7.00;54.70
17994;DHT22;9122;48.406;9.984;2023-04-04T11:58:25;7.00;54.50
17994;DHT22;9122;48.406;9.984;2023-04-04T12:01:10;7.00;54.10
17994;DHT22;9122;48.406;9.984;2023-04-04T12:03:55;7.00;53.80
17994;DHT22;9122;48.406;9.984;2023-04-04T12:06:39;7.00;54.10
17994;DHT22;9122;48.406;9.984;2023-04-04T12:09:25;7.00;54.20
17994;DHT22;9122;48.406;9.984;2023-04-04T12:12:14;7.00;53.80
17994;DHT22;9122;48.406;9.984;2023-04-04T12:15:01;7.00;53.70
17994;DHT22;9122;48.406;9.984;2023-04-04T12:17:46;7.00;53.80
17994;DHT22;9122;48.406;9.984;2023-04-04T12:20:32;6.90;54.70
17994;DHT22;9122;48.406;9.984;2023-04-04T12:23:16;7.00;55.00
17994;DHT22;9122;48.406;9.984;2023-04-04T12:26:02;7.10;55.50
17994;DHT22;9122;48.406;9.984;2023-04-04T12:28:48;7.10;55.30
17994;DHT22;9122;48.406;9.984;2023-04-04T12:31:33;7.20;55.20
17994;DHT22;9122;48.406;9.984;2023-04-04T12:34:21;7.20;55.20
17994;DHT22;9122;48.406;9.984;2023-04-04T12:37:08;7.30;54.40
17994;DHT22;9122;48.406;9.984;2023-04-04T12:39:55;7.30;53.50
17994;DHT22;9122;48.406;9.984;2023-04-04T12:42:39;7.30;53.50
17994;DHT22;9122;48.406;9.984;2023-04-04T12:45:25;7.40;52.40
17994;DHT22;9122;48.406;9.984;2023-04-04T12:48:12;7.40;52.20
17994;DHT22;9122;48.406;9.984;2023-04-04T12:50:59;7.40;52.80
17994;DHT22;9122;48.406;9.984;2023-04-04T12:53:51;7.40;53.30
17994;DHT22;9122;48.406;9.984;2023-04-04T12:56:36;7.40;53.50
17994;DHT22;9122;48.406;9.984;2023-04-04T12:59:21;7.40;52.40
17994;DHT22;9122;48.406;9.984;2023-04-04T13:02:09;7.40;52.20
17994;DHT22;9122;48.406;9.984;2023-04-04T13:04:54;7.50;52.40
17994;DHT22;9122;48.406;9.984;2023-04-04T13:07:39;7.40;52.20
17994;DHT22;9122;48.406;9.984;2023-04-04T13:10:26;7.40;52.80
17994;DHT22;9122;48.406;9.984;2023-04-04T13:13:39;7.40;52.00
17994;DHT22;9122;48.406;9.984;2023-04-04T13:16:32;7.40;52.60
17994;DHT22;9122;48.406;9.984;2023-04-04T13:19:17;7.40;51.90
17994;DHT22;9122;48.406;9.984;2023-04-04T13:22:02;7.40;51.80
17994;DHT22;9122;48.406;9.984;2023-04-04T13:24:46;7.40;52.20
17994;DHT22;9122;48.406;9.984;2023-04-04T13:27:31;7.40;51.90
17994;DHT22;9122;48.406;9.984;2023-04-04T13:30:15;7.40;52.50
17994;DHT22;9122;48.406;9.984;2023-04-04T13:33:00;7.40;53.10
17994;DHT22;9122;48.406;9.984;2023-04-04T13:35:45;7.40;53.40
17994;DHT22;9122;48.406;9.984;2023-04-04T13:38:30;7.40;53.30
17994;DHT22;9122;48.406;9.984;2023-04-04T13:41:15;7.30;53.60
17994;DHT22;9122;48.406;9.984;2023-04-04T13:43:59;7.30;53.10
17994;DHT22;9122;48.406;9.984;2023-04-04T13:46:44;7.30;53.10
17994;DHT22;9122;48.406;9.984;2023-04-04T13:49:28;7.30;52.60
17994;DHT22;9122;48.406;9.984;2023-04-04T13:52:13;7.30;52.60
17994;DHT22;9122;48.406;9.984;2023-04-04T13:54:58;7.30;52.50
17994;DHT22;9122;48.406;9.984;2023-04-04T13:57:42;7.30;53.00
17994;DHT22;9122;48.406;9.984;2023-04-04T14:00:27;7.30;53.00
17994;DHT22;9122;48.406;9.984;2023-04-04T14:03:11;7.30;53.60
17994;DHT22;9122;48.406;9.984;2023-04-04T14:05:56;7.30;52.90
17994;DHT22;9122;48.406;9.984;2023-04-04T14:08:40;7.30;51.90
17994;DHT22;9122;48.406;9.984;2023-04-04T14:11:25;7.20;52.20
17994;DHT22;9122;48.406;9.984;2023-04-04T14:14:14;7.20;52.80
17994;DHT22;9122;48.406;9.984;2023-04-04T14:16:58;7.30;52.90
17994;DHT22;9122;48.406;9.984;2023-04-04T14:19:43;7.20;53.00
17994;DHT22;9122;48.406;9.984;2023-04-04T14:22:27;7.20;53.40
17994;DHT22;9122;48.406;9.984;2023-04-04T14:25:12;7.30;53.30
17994;DHT22;9122;48.406;9.984;2023-04-04T14:27:57;7.20;52.30
17994;DHT22;9122;48.406;9.984;2023-04-04T14:30:41;7.20;52.70
17994;DHT22;9122;48.406;9.984;2023-04-04T14:33:26;7.20;53.40
17994;DHT22;9122;48.406;9.984;2023-04-04T14:36:10;7.20;53.10
17994;DHT22;9122;48.406;9.984;2023-04-04T14:38:54;7.20;54.10
17994;DHT22;9122;48.406;9.984;2023-04-04T14:41:39;7.20;54.50
17994;DHT22;9122;48.406;9.984;2023-04-04T14:44:24;7.20;54.60
17994;DHT22;9122;48.406;9.984;2023-04-04T14:47:09;7.20;54.50
17994;DHT22;9122;48.406;9.984;2023-04-04T14:49:52;7.20;54.00
17994;DHT22;9122;48.406;9.984;2023-04-04T14:52:37;7.20;54.10
17994;DHT22;9122;48.406;9.984;2023-04-04T14:55:21;7.30;54.50
17994;DHT22;9122;48.406;9.984;2023-04-04T14:58:05;7.20;54.10
17994;DHT22;9122;48.406;9.984;2023-04-04T15:00:50;7.80;54.50
17994;DHT22;9122;48.406;9.984;2023-04-04T15:03:34;7.10;53.80
17994;DHT22;9122;48.406;9.984;2023-04-04T15:06:19;7.80;54.50
17994;DHT22;9122;48.406;9.984;2023-04-04T15:09:04;7.00;54.60
17994;DHT22;9122;48.406;9.984;2023-04-04T15:11:49;7.00;54.80
17994;DHT22;9122;48.406;9.984;2023-04-04T15:14:35;7.00;54.80
17994;DHT22;9122;48.406;9.984;2023-04-04T15:17:19;7.00;55.10
17994;DHT22;9122;48.406;9.984;2023-04-04T15:20:04;7.00;54.80
17994;DHT22;9122;48.406;9.984;2023-04-04T15:22:49;7.00;54.60
17994;DHT22;9122;48.406;9.984;2023-04-04T15:25:33;7.00;54.40
17994;DHT22;9122;48.406;9.984;2023-04-04T15:28:18;7.00;54.40
17994;DHT22;9122;48.406;9.984;2023-04-04T15:31:03;6.90;54.50
17994;DHT22;9122;48.406;9.984;2023-04-04T15:33:47;6.90;54.80
17994;DHT22;9122;48.406;9.984;2023-04-04T15:36:32;6.90;54.50
17994;DHT22;9122;48.406;9.984;2023-04-04T15:39:17;7.00;54.80
17994;DHT22;9122;48.406;9.984;2023-04-04T15:42:01;7.00;54.90
17994;DHT22;9122;48.406;9.984;2023-04-04T15:44:46;6.90;55.10
17994;DHT22;9122;48.406;9.984;2023-04-04T15:47:30;6.90;55.40
17994;DHT22;9122;48.406;9.984;2023-04-04T15:50:15;6.90;55.20
17994;DHT22;9122;48.406;9.984;2023-04-04T15:53:00;6.90;55.40
17994;DHT22;9122;48.406;9.984;2023-04-04T15:55:44;6.90;55.20
17994;DHT22;9122;48.406;9.984;2023-04-04T15:58:29;6.90;55.10
17994;DHT22;9122;48.406;9.984;2023-04-04T16:01:13;6.90;55.30
17994;DHT22;9122;48.406;9.984;2023-04-04T16:04:00;6.90;55.30
17994;DHT22;9122;48.406;9.984;2023-04-04T16:06:44;6.90;55.30
17994;DHT22;9122;48.406;9.984;2023-04-04T16:09:29;6.80;55.40
17994;DHT22;9122;48.406;9.984;2023-04-04T16:12:14;6.80;55.70
17994;DHT22;9122;48.406;9.984;2023-04-04T16:14:58;6.80;55.80
17994;DHT22;9122;48.406;9.984;2023-04-04T16:17:43;6.80;55.60
17994;DHT22;9122;48.406;9.984;2023-04-04T16:20:28;6.80;55.90
17994;DHT22;9122;48.406;9.984;2023-04-04T16:23:13;6.80;55.30
17994;DHT22;9122;48.406;9.984;2023-04-04T16:25:58;6.80;55.30
17994;DHT22;9122;48.406;9.984;2023-04-04T16:28:42;6.80;55.50
17994;DHT22;9122;48.406;9.984;2023-04-04T16:31:27;6.80;55.30
17994;DHT22;9122;48.406;9.984;2023-04-04T16:34:12;6.80;55.50
17994;DHT22;9122;48.406;9.984;2023-04-04T16:36:56;6.70;56.00
17994;DHT22;9122;48.406;9.984;2023-04-04T16:39:41;6.70;56.10
17994;DHT22;9122;48.406;9.984;2023-04-04T16:42:26;6.70;56.10
17994;DHT22;9122;48.406;9.984;2023-04-04T16:45:13;6.70;55.60
17994;DHT22;9122;48.406;9.984;2023-04-04T16:47:58;6.60;55.20
17994;DHT22;9122;48.406;9.984;2023-04-04T16:50:43;6.60;55.30
17994;DHT22;9122;48.406;9.984;2023-04-04T16:53:28;6.60;55.10
17994;DHT22;9122;48.406;9.984;2023-04-04T16:56:12;7.20;55.50
17994;DHT22;9122;48.406;9.984;2023-04-04T16:58:57;6.60;55.80
17994;DHT22;9122;48.406;9.984;2023-04-04T17:01:42;6.60;56.10
17994;DHT22;9122;48.406;9.984;2023-04-04T17:04:27;6.60;56.10
17994;DHT22;9122;48.406;9.984;2023-04-04T17:07:14;6.50;56.20
17994;DHT22;9122;48.406;9.984;2023-04-04T17:09:58;6.60;56.40
17994;DHT22;9122;48.406;9.984;2023-04-04T17:12:43;6.50;56.50
17994;DHT22;9122;48.406;9.984;2023-04-04T17:15:28;6.50;56.50
17994;DHT22;9122;48.406;9.984;2023-04-04T17:18:12;6.60;56.50
17994;DHT22;9122;48.406;9.984;2023-04-04T17:20:57;6.50;56.50
17994;DHT22;9122;48.406;9.984;2023-04-04T17:23:41;6.50;56.50
17994;DHT22;9122;48.406;9.984;2023-04-04T17:26:26;6.50;56.30
17994;DHT22;9122;48.406;9.984;2023-04-04T17:29:11;6.40;56.10
17994;DHT22;9122;48.406;9.984;2023-04-04T17:31:56;6.40;56.10
17994;DHT22;9122;48.406;9.984;2023-04-04T17:34:40;6.40;56.30
17994;DHT22;9122;48.406;9.984;2023-04-04T17:37:25;6.40;56.60
17994;DHT22;9122;48.406;9.984;2023-04-04T17:40:11;6.30;56.80
17994;DHT22;9122;48.406;9.984;2023-04-04T17:42:56;6.30;56.80
17994;DHT22;9122;48.406;9.984;2023-04-04T17:45:44;6.30;56.90
17994;DHT22;9122;48.406;9.984;2023-04-04T17:48:28;6.30;57.10
17994;DHT22;9122;48.406;9.984;2023-04-04T17:51:15;6.30;57.30
17994;DHT22;9122;48.406;9.984;2023-04-04T17:54:00;6.20;57.30
17994;DHT22;9122;48.406;9.984;2023-04-04T17:56:45;6.20;57.20
17994;DHT22;9122;48.406;9.984;2023-04-04T17:59:30;6.20;57.30
17994;DHT22;9122;48.406;9.984;2023-04-04T18:02:14;6.20;57.40
17994;DHT22;9122;48.406;9.984;2023-04-04T18:05:02;6.10;57.50
17994;DHT22;9122;48.406;9.984;2023-04-04T18:07:47;6.10;57.70
17994;DHT22;9122;48.406;9.984;2023-04-04T18:10:31;6.10;57.90
17994;DHT22;9122;48.406;9.984;2023-04-04T18:13:16;6.10;58.10